sensor_id;sensor_type;location;lat;lon;timestamp;pressure;altitude;pressure_sealevel;temperature;humidity
24762;BME280;12865;51.934;10.330;2023-09-19T00:01:12;98252.34;;;16.26;100.00
24762;BME280;12865;51.934;10.330;2023-09-19T00:03:59;98256.50;;;16.29;100.00
24762;BME280;12865;51.934;10.330;2023-09-19T00:06:45;98261.66;;;16.24;100.00
24762;BME280;12865;51.934;10.330;2023-09-19T00:09:32;98261.25;;;16.27;100.00
24762;BME280;12865;51.934;10.330;2023-09-19T00:12:22;98265.56;;;16.21;100.00
24762;BME280;12865;51.934;10.330;2023-09-19T00:15:08;98265.19;;;16.24;100.00
24762;BME280;12865;51.934;10.330;2023-09-19T00:17:56;98271.38;;;16.18;100.00
24762;BME280;12865;51.934;10.330;2023-09-19T00:20:42;98278.34;;;16.13;100.00
24762;BME280;12865;51.934;10.330;2023-09-19T00:23:27;98281.47;;;16.16;100.00
24762;BME280;12865;51.934;10.330;2023-09-19T00:26:13;98274.06;;;16.18;100.00
24762;BME280;12865;51.934;10.330;2023-09-19T00:29:00;98275.66;;;16.13;100.00
24762;BME280;12865;51.934;10.330;2023-09-19T00:31:53;98284.59;;;16.20;100.00
24762;BME280;12865;51.934;10.330;2023-09-19T00:34:39;98282.13;;;16.18;100.00
24762;BME280;12865;51.934;10.330;2023-09-19T00:37:25;98293.66;;;16.12;100.00
24762;BME280;12865;51.934;10.330;2023-09-19T00:40:11;98281.25;;;16.11;100.00
24762;BME280;12865;51.934;10.330;2023-09-19T00:43:00;98290.34;;;16.10;100.00
24762;BME280;12865;51.934;10.330;2023-09-19T00:45:48;98294.06;;;16.09;100.00
24762;BME280;12865;51.934;10.330;2023-09-19T00:48:40;98304.81;;;16.09;100.00
24762;BME280;12865;51.934;10.330;2023-09-19T00:51:26;98294.47;;;16.13;100.00
24762;BME280;12865;51.934;10.330;2023-09-19T00:54:13;98298.00;;;16.13;100.00
24762;BME280;12865;51.934;10.330;2023-09-19T00:57:03;98291.63;;;16.21;100.00
24762;BME280;12865;51.934;10.330;2023-09-19T00:59:50;98294.97;;;16.23;100.00
24762;BME280;12865;51.934;10.330;2023-09-19T01:02:38;98289.44;;;16.31;100.00
24762;BME280;12865;51.934;10.330;2023-09-19T01:05:24;98294.63;;;16.32;100.00
24762;BME280;12865;51.934;10.330;2023-09-19T01:08:11;98295.19;;;16.28;100.00
24762;BME280;12865;51.934;10.330;2023-09-19T01:11:02;98299.81;;;16.40;100.00
24762;BME280;12865;51.934;10.330;2023-09-19T01:14:14;98294.84;;;16.37;100.00
24762;BME280;12865;51.934;10.330;2023-09-19T01:17:29;98290.09;;;16.39;100.00
24762;BME280;12865;51.934;10.330;2023-09-19T01:21:20;98292.56;;;16.41;100.00
24762;BME280;12865;51.934;10.330;2023-09-19T01:29:48;98301.84;;;16.32;100.00
24762;BME280;12865;51.934;10.330;2023-09-19T01:32:34;98303.28;;;16.34;100.00
24762;BME280;12865;51.934;10.330;2023-09-19T01:35:20;98295.19;;;16.28;100.00
24762;BME280;12865;51.934;10.330;2023-09-19T01:38:06;98313.59;;;16.24;100.00
24762;BME280;12865;51.934;10.330;2023-09-19T01:41:04;98310.03;;;16.17;100.00
24762;BME280;12865;51.934;10.330;2023-09-19T01:43:53;98314.34;;;16.12;100.00
24762;BME280;12865;51.934;10.330;2023-09-19T01:46:40;98314.53;;;16.10;100.00
24762;BME280;12865;51.934;10.330;2023-09-19T01:49:40;98323.41;;;16.04;100.00
24762;BME280;12865;51.934;10.330;2023-09-19T01:52:31;98319.03;;;16.03;100.00
24762;BME280;12865;51.934;10.330;2023-09-19T01:55:24;98318.91;;;16.11;100.00
24762;BME280;12865;51.934;10.330;2023-09-19T01:58:29;98317.59;;;16.07;100.00
24762;BME280;12865;51.934;10.330;2023-09-19T02:01:22;98318.81;;;15.98;100.00
24762;BME280;12865;51.934;10.330;2023-09-19T02:04:09;98322.47;;;15.90;100.00
24762;BME280;12865;51.934;10.330;2023-09-19T02:06:55;98324.56;;;15.95;100.00
24762;BME280;12865;51.934;10.330;2023-09-19T02:09:41;98328.03;;;15.89;100.00
24762;BME280;12865;51.934;10.330;2023-09-19T02:12:28;98327.03;;;15.90;100.00
24762;BME280;12865;51.934;10.330;2023-09-19T02:15:14;98336.09;;;15.89;100.00
24762;BME280;12865;51.934;10.330;2023-09-19T02:18:01;98327.81;;;15.84;100.00
24762;BME280;12865;51.934;10.330;2023-09-19T02:20:48;98335.88;;;15.84;100.00
24762;BME280;12865;51.934;10.330;2023-09-19T02:23:34;98330.22;;;15.79;100.00
24762;BME280;12865;51.934;10.330;2023-09-19T02:26:19;98329.97;;;15.74;100.00
24762;BME280;12865;51.934;10.330;2023-09-19T02:29:05;98340.41;;;15.83;100.00
24762;BME280;12865;51.934;10.330;2023-09-19T02:31:51;98342.44;;;15.81;100.00
24762;BME280;12865;51.934;10.330;2023-09-19T02:34:37;98336.84;;;15.76;100.00
24762;BME280;12865;51.934;10.330;2023-09-19T02:37:24;98350.28;;;15.76;100.00
24762;BME280;12865;51.934;10.330;2023-09-19T02:40:10;98343.94;;;15.84;100.00
24762;BME280;12865;51.934;10.330;2023-09-19T02:43:04;98343.03;;;15.77;100.00
24762;BME280;12865;51.934;10.330;2023-09-19T02:45:50;98364.53;;;15.77;100.00
24762;BME280;12865;51.934;10.330;2023-09-19T02:48:38;98355.25;;;15.79;100.00
24762;BME280;12865;51.934;10.330;2023-09-19T02:51:24;98363.44;;;15.71;100.00
24762;BME280;12865;51.934;10.330;2023-09-19T02:54:10;98367.59;;;15.74;100.00
24762;BME280;12865;51.934;10.330;2023-09-19T02:56:57;98369.66;;;15.71;100.00
24762;BME280;12865;51.934;10.330;2023-09-19T02:59:44;98373.63;;;15.76;100.00
24762;BME280;12865;51.934;10.330;2023-09-19T03:02:30;98379.56;;;15.71;100.00
24762;BME280;12865;51.934;10.330;2023-09-19T03:05:18;98385.72;;;15.65;100.00
24762;BME280;12865;51.934;10.330;2023-09-19T03:08:04;98380.91;;;15.60;100.00
24762;BME280;12865;51.934;10.330;2023-09-19T03:10:50;98384.88;;;15.64;100.00
24762;BME280;12865;51.934;10.330;2023-09-19T03:13:36;98387.50;;;15.58;100.00
24762;BME280;12865;51.934;10.330;2023-09-19T03:16:25;98388.72;;;15.55;100.00
24762;BME280;12865;51.934;10.330;2023-09-19T03:19:11;98390.00;;;15.59;100.00
24762;BME280;12865;51.934;10.330;2023-09-19T03:21:57;98378.88;;;15.62;100.00
24762;BME280;12865;51.934;10.330;2023-09-19T03:24:43;98391.72;;;15.67;100.00
24762;BME280;12865;51.934;10.330;2023-09-19T03:27:29;98390.38;;;15.56;100.00
24762;BME280;12865;51.934;10.330;2023-09-19T03:30:14;98383.69;;;15.52;100.00
24762;BME280;12865;51.934;10.330;2023-09-19T03:33:00;98390.50;;;15.48;100.00
24762;BME280;12865;51.934;10.330;2023-09-19T03:35:52;98383.88;;;15.51;100.00
24762;BME280;12865;51.934;10.330;2023-09-19T03:38:39;98388.81;;;15.47;100.00
24762;BME280;12865;51.934;10.330;2023-09-19T03:41:24;98377.63;;;15.44;100.00
24762;BME280;12865;51.934;10.330;2023-09-19T03:44:10;98387.47;;;15.37;100.00
24762;BME280;12865;51.934;10.330;2023-09-19T03:46:56;98389.31;;;15.36;100.00
24762;BME280;12865;51.934;10.330;2023-09-19T03:49:42;98388.97;;;15.24;100.00
24762;BME280;12865;51.934;10.330;2023-09-19T03:52:27;98388.50;;;15.21;100.00
24762;BME280;12865;51.934;10.330;2023-09-19T03:55:13;98392.69;;;15.23;100.00
24762;BME280;12865;51.934;10.330;2023-09-19T03:57:59;98394.16;;;15.26;100.00
24762;BME280;12865;51.934;10.330;2023-09-19T04:00:44;98395.47;;;15.15;100.00
24762;BME280;12865;51.934;10.330;2023-09-19T04:03:30;98409.47;;;15.11;100.00
24762;BME280;12865;51.934;10.330;2023-09-19T04:06:30;98392.72;;;15.09;100.00
24762;BME280;12865;51.934;10.330;2023-09-19T04:09:16;98404.78;;;15.13;100.00
24762;BME280;12865;51.934;10.330;2023-09-19T04:12:02;98415.94;;;15.16;100.00
24762;BME280;12865;51.934;10.330;2023-09-19T04:14:47;98418.38;;;15.11;100.00
24762;BME280;12865;51.934;10.330;2023-09-19T04:17:33;98411.97;;;15.12;100.00
24762;BME280;12865;51.934;10.330;2023-09-19T04:20:19;98427.19;;;15.05;100.00
24762;BME280;12865;51.934;10.330;2023-09-19T04:23:05;98425.41;;;15.12;100.00
24762;BME280;12865;51.934;10.330;2023-09-19T04:25:51;98437.91;;;15.05;100.00
24762;BME280;12865;51.934;10.330;2023-09-19T04:28:37;98434.41;;;15.05;100.00
24762;BME280;12865;51.934;10.330;2023-09-19T04:31:23;98445.22;;;14.97;100.00
24762;BME280;12865;51.934;10.330;2023-09-19T04:34:09;98443.00;;;15.00;100.00
24762;BME280;12865;51.934;10.330;2023-09-19T04:36:55;98435.84;;;15.07;100.00
24762;BME280;12865;51.934;10.330;2023-09-19T04:39:43;98455.59;;;15.00;100.00
24762;BME280;12865;51.934;10.330;2023-09-19T04:42:29;98455.31;;;14.94;100.00
24762;BME280;12865;51.934;10.330;2023-09-19T04:45:15;98452.81;;;14.93;100.00
24762;BME280;12865;51.934;10.330;2023-09-19T04:48:01;98458.00;;;14.94;100.00
24762;BME280;12865;51.934;10.330;2023-09-19T04:50:48;98458.56;;;14.90;100.00
24762;BME280;12865;51.934;10.330;2023-09-19T04:53:34;98461.44;;;14.88;100.00
24762;BME280;12865;51.934;10.330;2023-09-19T04:56:20;98455.41;;;14.86;100.00
24762;BME280;12865;51.934;10.330;2023-09-19T04:59:06;98458.47;;;14.83;100.00
24762;BME280;12865;51.934;10.330;2023-09-19T05:01:52;98464.38;;;14.93;100.00
24762;BME280;12865;51.934;10.330;2023-09-19T05:04:38;98451.34;;;14.90;100.00
24762;BME280;12865;51.934;10.330;2023-09-19T05:07:24;98451.16;;;14.92;100.00
24762;BME280;12865;51.934;10.330;2023-09-19T05:10:11;98456.31;;;14.93;100.00
24762;BME280;12865;51.934;10.330;2023-09-19T05:12:58;98465.03;;;14.96;100.00
24762;BME280;12865;51.934;10.330;2023-09-19T05:15:43;98456.91;;;14.89;100.00
24762;BME280;12865;51.934;10.330;2023-09-19T05:18:29;98462.16;;;14.97;100.00
24762;BME280;12865;51.934;10.330;2023-09-19T05:21:15;98470.66;;;15.01;100.00
24762;BME280;12865;51.934;10.330;2023-09-19T05:24:00;98472.34;;;15.02;100.00
24762;BME280;12865;51.934;10.330;2023-09-19T05:26:46;98473.44;;;15.07;100.00
24762;BME280;12865;51.934;10.330;2023-09-19T05:29:32;98474.50;;;14.91;100.00
24762;BME280;12865;51.934;10.330;2023-09-19T05:32:19;98476.44;;;14.98;100.00
24762;BME280;12865;51.934;10.330;2023-09-19T05:35:05;98479.19;;;14.89;100.00
24762;BME280;12865;51.934;10.330;2023-09-19T05:37:54;98484.94;;;14.86;100.00
24762;BME280;12865;51.934;10.330;2023-09-19T05:40:41;98489.66;;;14.84;100.00
24762;BME280;12865;51.934;10.330;2023-09-19T05:43:27;98493.53;;;14.82;100.00
24762;BME280;12865;51.934;10.330;2023-09-19T05:46:13;98498.06;;;14.81;100.00
24762;BME280;12865;51.934;10.330;2023-09-19T05:49:01;98497.72;;;14.84;100.00
24762;BME280;12865;51.934;10.330;2023-09-19T05:51:47;98503.81;;;14.78;100.00
24762;BME280;12865;51.934;10.330;2023-09-19T05:54:33;98514.66;;;14.85;100.00
24762;BME280;12865;51.934;10.330;2023-09-19T05:57:19;98518.78;;;14.73;100.00
24762;BME280;12865;51.934;10.330;2023-09-19T06:00:06;98523.88;;;14.68;100.00
24762;BME280;12865;51.934;10.330;2023-09-19T06:02:57;98526.28;;;14.63;100.00
24762;BME280;12865;51.934;10.330;2023-09-19T06:05:43;98543.75;;;14.73;100.00
24762;BME280;12865;51.934;10.330;2023-09-19T06:08:29;98555.63;;;14.64;100.00
24762;BME280;12865;51.934;10.330;2023-09-19T06:11:16;98554.22;;;14.68;100.00
24762;BME280;12865;51.934;10.330;2023-09-19T06:14:03;98563.34;;;14.59;100.00
24762;BME280;12865;51.934;10.330;2023-09-19T06:16:49;98566.59;;;14.54;100.00
24762;BME280;12865;51.934;10.330;2023-09-19T06:19:35;98568.72;;;14.59;100.00
24762;BME280;12865;51.934;10.330;2023-09-19T06:22:20;98565.84;;;14.61;100.00
24762;BME280;12865;51.934;10.330;2023-09-19T06:25:06;98554.78;;;14.64;100.00
24762;BME280;12865;51.934;10.330;2023-09-19T06:27:52;98570.16;;;14.70;100.00
24762;BME280;12865;51.934;10.330;2023-09-19T06:30:39;98581.78;;;14.62;100.00
24762;BME280;12865;51.934;10.330;2023-09-19T06:33:28;98578.94;;;14.64;100.00
24762;BME280;12865;51.934;10.330;2023-09-19T06:36:13;98594.91;;;14.57;100.00
24762;BME280;12865;51.934;10.330;2023-09-19T06:38:59;98597.31;;;14.67;100.00
24762;BME280;12865;51.934;10.330;2023-09-19T06:41:44;98590.63;;;14.85;100.00
24762;BME280;12865;51.934;10.330;2023-09-19T06:44:31;98609.63;;;14.99;100.00
24762;BME280;12865;51.934;10.330;2023-09-19T06:47:17;98604.72;;;15.17;100.00
24762;BME280;12865;51.934;10.330;2023-09-19T06:50:03;98592.91;;;15.26;98.32
24762;BME280;12865;51.934;10.330;2023-09-19T06:52:52;98611.13;;;15.30;97.76
24762;BME280;12865;51.934;10.330;2023-09-19T06:55:39;98605.84;;;15.52;97.13
24762;BME280;12865;51.934;10.330;2023-09-19T06:58:25;98597.78;;;15.37;99.05
24762;BME280;12865;51.934;10.330;2023-09-19T07:01:11;98600.22;;;15.61;100.00
24762;BME280;12865;51.934;10.330;2023-09-19T07:03:56;98595.56;;;15.70;97.29
24762;BME280;12865;51.934;10.330;2023-09-19T07:06:42;98594.53;;;15.86;96.47
24762;BME280;12865;51.934;10.330;2023-09-19T07:09:28;98600.97;;;16.06;96.44
24762;BME280;12865;51.934;10.330;2023-09-19T07:12:13;98605.13;;;16.08;93.11
24762;BME280;12865;51.934;10.330;2023-09-19T07:14:59;98603.31;;;16.30;92.08
24762;BME280;12865;51.934;10.330;2023-09-19T07:17:45;98594.22;;;16.31;92.90
24762;BME280;12865;51.934;10.330;2023-09-19T07:20:31;98597.28;;;16.49;90.71
24762;BME280;12865;51.934;10.330;2023-09-19T07:23:18;98599.31;;;16.47;89.45
24762;BME280;12865;51.934;10.330;2023-09-19T07:26:06;98602.03;;;16.69;89.88
24762;BME280;12865;51.934;10.330;2023-09-19T07:28:51;98591.28;;;16.69;90.48
24762;BME280;12865;51.934;10.330;2023-09-19T07:31:38;98606.16;;;16.65;86.53
24762;BME280;12865;51.934;10.330;2023-09-19T07:34:24;98595.56;;;16.84;87.86
24762;BME280;12865;51.934;10.330;2023-09-19T07:37:09;98607.94;;;17.07;87.83
24762;BME280;12865;51.934;10.330;2023-09-19T07:39:55;98613.47;;;16.99;86.72
24762;BME280;12865;51.934;10.330;2023-09-19T07:42:41;98615.03;;;16.86;85.17
24762;BME280;12865;51.934;10.330;2023-09-19T07:45:28;98623.91;;;17.08;86.74
24762;BME280;12865;51.934;10.330;2023-09-19T07:48:15;98628.56;;;16.93;87.34
24762;BME280;12865;51.934;10.330;2023-09-19T07:51:03;98631.19;;;16.86;86.47
24762;BME280;12865;51.934;10.330;2023-09-19T07:53:49;98637.75;;;16.77;87.95
24762;BME280;12865;51.934;10.330;2023-09-19T07:56:35;98642.03;;;16.72;88.09
24762;BME280;12865;51.934;10.330;2023-09-19T07:59:20;98644.34;;;16.75;88.19
24762;BME280;12865;51.934;10.330;2023-09-19T08:02:06;98647.59;;;16.70;89.44
24762;BME280;12865;51.934;10.330;2023-09-19T08:04:53;98649.47;;;16.70;90.90
24762;BME280;12865;51.934;10.330;2023-09-19T08:07:41;98642.81;;;16.66;89.41
24762;BME280;12865;51.934;10.330;2023-09-19T08:10:26;98647.25;;;16.73;89.62
24762;BME280;12865;51.934;10.330;2023-09-19T08:13:13;98654.47;;;16.73;90.40
24762;BME280;12865;51.934;10.330;2023-09-19T08:16:00;98666.31;;;16.78;88.32
24762;BME280;12865;51.934;10.330;2023-09-19T08:18:48;98666.56;;;16.62;87.31
24762;BME280;12865;51.934;10.330;2023-09-19T08:21:38;98668.81;;;16.59;91.26
24762;BME280;12865;51.934;10.330;2023-09-19T08:24:27;98672.78;;;16.63;89.80
24762;BME280;12865;51.934;10.330;2023-09-19T08:27:16;98674.91;;;16.31;88.05
24762;BME280;12865;51.934;10.330;2023-09-19T08:30:04;98680.59;;;16.58;88.77
24762;BME280;12865;51.934;10.330;2023-09-19T08:32:50;98679.06;;;16.70;85.23
24762;BME280;12865;51.934;10.330;2023-09-19T08:35:36;98682.66;;;16.77;86.01
24762;BME280;12865;51.934;10.330;2023-09-19T08:38:23;98685.09;;;16.93;85.88
24762;BME280;12865;51.934;10.330;2023-09-19T08:41:09;98682.66;;;16.98;84.45
24762;BME280;12865;51.934;10.330;2023-09-19T08:43:58;98683.13;;;17.02;84.95
24762;BME280;12865;51.934;10.330;2023-09-19T08:46:48;98678.56;;;17.02;84.41
24762;BME280;12865;51.934;10.330;2023-09-19T08:50:03;98680.66;;;17.07;84.09
24762;BME280;12865;51.934;10.330;2023-09-19T08:52:52;98677.69;;;16.95;84.56
24762;BME280;12865;51.934;10.330;2023-09-19T08:55:41;98673.88;;;16.89;84.65
24762;BME280;12865;51.934;10.330;2023-09-19T08:58:34;98670.28;;;17.04;83.75
24762;BME280;12865;51.934;10.330;2023-09-19T09:01:21;98674.66;;;17.33;83.54
24762;BME280;12865;51.934;10.330;2023-09-19T09:04:11;98665.50;;;17.27;82.80
24762;BME280;12865;51.934;10.330;2023-09-19T09:06:58;98665.22;;;17.43;82.09
24762;BME280;12865;51.934;10.330;2023-09-19T09:09:44;98662.31;;;17.73;79.36
24762;BME280;12865;51.934;10.330;2023-09-19T09:12:30;98667.22;;;17.62;79.94
24762;BME280;12865;51.934;10.330;2023-09-19T09:15:18;98662.69;;;17.70;79.10
24762;BME280;12865;51.934;10.330;2023-09-19T09:18:06;98673.34;;;17.78;78.55
24762;BME280;12865;51.934;10.330;2023-09-19T09:20:52;98673.75;;;17.81;78.93
24762;BME280;12865;51.934;10.330;2023-09-19T09:23:38;98661.56;;;17.85;79.73
24762;BME280;12865;51.934;10.330;2023-09-19T09:26:42;98683.09;;;17.51;79.36
24762;BME280;12865;51.934;10.330;2023-09-19T09:32:30;98685.47;;;17.39;80.33
24762;BME280;12865;51.934;10.330;2023-09-19T09:35:19;98675.44;;;17.54;80.01
24762;BME280;12865;51.934;10.330;2023-09-19T09:38:06;98664.63;;;17.82;82.45
24762;BME280;12865;51.934;10.330;2023-09-19T09:40:55;98670.94;;;18.02;81.59
24762;BME280;12865;51.934;10.330;2023-09-19T09:43:47;98680.31;;;18.07;78.23
24762;BME280;12865;51.934;10.330;2023-09-19T09:46:34;98684.84;;;17.99;77.64
24762;BME280;12865;51.934;10.330;2023-09-19T09:49:34;98672.44;;;18.12;78.31
24762;BME280;12865;51.934;10.330;2023-09-19T09:52:20;98680.53;;;18.12;78.13
24762;BME280;12865;51.934;10.330;2023-09-19T09:55:09;98685.56;;;18.15;76.66
24762;BME280;12865;51.934;10.330;2023-09-19T09:58:18;98676.75;;;17.99;77.01
24762;BME280;12865;51.934;10.330;2023-09-19T10:01:04;98664.34;;;18.12;77.88
24762;BME280;12865;51.934;10.330;2023-09-19T10:04:01;98669.72;;;18.05;78.12
24762;BME280;12865;51.934;10.330;2023-09-19T10:06:47;98686.16;;;17.76;78.68
24762;BME280;12865;51.934;10.330;2023-09-19T10:09:46;98672.78;;;17.95;80.87
24762;BME280;12865;51.934;10.330;2023-09-19T10:12:41;98681.34;;;18.05;80.95
24762;BME280;12865;51.934;10.330;2023-09-19T10:15:31;98686.59;;;18.14;80.72
24762;BME280;12865;51.934;10.330;2023-09-19T10:18:22;98686.00;;;18.25;79.75
24762;BME280;12865;51.934;10.330;2023-09-19T10:21:09;98693.88;;;18.20;79.00
24762;BME280;12865;51.934;10.330;2023-09-19T10:23:58;98679.13;;;17.81;79.79
24762;BME280;12865;51.934;10.330;2023-09-19T10:26:45;98698.06;;;17.60;80.64
24762;BME280;12865;51.934;10.330;2023-09-19T10:29:32;98704.00;;;17.49;80.91
24762;BME280;12865;51.934;10.330;2023-09-19T10:32:22;98700.97;;;17.58;82.03
24762;BME280;12865;51.934;10.330;2023-09-19T10:35:11;98696.13;;;17.75;81.23
24762;BME280;12865;51.934;10.330;2023-09-19T10:38:01;98696.03;;;17.96;81.77
24762;BME280;12865;51.934;10.330;2023-09-19T10:40:50;98690.34;;;18.19;81.51
24762;BME280;12865;51.934;10.330;2023-09-19T10:43:37;98692.25;;;18.32;79.03
24762;BME280;12865;51.934;10.330;2023-09-19T10:46:23;98696.84;;;18.38;79.81
24762;BME280;12865;51.934;10.330;2023-09-19T10:49:11;98697.66;;;18.38;79.62
24762;BME280;12865;51.934;10.330;2023-09-19T10:51:59;98685.69;;;18.54;79.61
24762;BME280;12865;51.934;10.330;2023-09-19T10:54:50;98685.94;;;18.66;78.22
24762;BME280;12865;51.934;10.330;2023-09-19T10:57:36;98674.13;;;18.87;76.59
24762;BME280;12865;51.934;10.330;2023-09-19T11:00:22;98685.56;;;18.75;76.62
24762;BME280;12865;51.934;10.330;2023-09-19T11:06:12;98695.28;;;18.57;76.04
24762;BME280;12865;51.934;10.330;2023-09-19T11:09:04;98686.78;;;18.66;74.40
24762;BME280;12865;51.934;10.330;2023-09-19T11:12:07;98676.84;;;18.87;75.03
24762;BME280;12865;51.934;10.330;2023-09-19T11:14:53;98673.34;;;19.06;75.08
24762;BME280;12865;51.934;10.330;2023-09-19T11:17:42;98682.88;;;19.02;75.10
24762;BME280;12865;51.934;10.330;2023-09-19T11:20:30;98681.22;;;19.01;71.12
24762;BME280;12865;51.934;10.330;2023-09-19T11:23:26;98677.91;;;18.92;72.08
24762;BME280;12865;51.934;10.330;2023-09-19T11:26:42;98681.63;;;18.85;70.79
24762;BME280;12865;51.934;10.330;2023-09-19T11:29:32;98685.56;;;18.95;71.58
24762;BME280;12865;51.934;10.330;2023-09-19T11:41:37;98679.97;;;18.97;71.76
24762;BME280;12865;51.934;10.330;2023-09-19T11:47:12;98679.13;;;18.96;71.26
24762;BME280;12865;51.934;10.330;2023-09-19T11:50:01;98671.03;;;18.90;70.55
24762;BME280;12865;51.934;10.330;2023-09-19T11:52:47;98670.81;;;18.85;71.92
24762;BME280;12865;51.934;10.330;2023-09-19T11:55:34;98675.78;;;18.88;71.20
24762;BME280;12865;51.934;10.330;2023-09-19T11:58:20;98673.53;;;18.85;71.39
24762;BME280;12865;51.934;10.330;2023-09-19T12:01:06;98663.31;;;18.80;70.26
24762;BME280;12865;51.934;10.330;2023-09-19T12:03:59;98658.56;;;18.89;71.34
24762;BME280;12865;51.934;10.330;2023-09-19T12:06:56;98672.50;;;18.92;70.76
24762;BME280;12865;51.934;10.330;2023-09-19T12:09:47;98673.53;;;19.04;70.35
24762;BME280;12865;51.934;10.330;2023-09-19T12:12:33;98675.59;;;19.02;70.24
24762;BME280;12865;51.934;10.330;2023-09-19T12:15:28;98674.13;;;19.06;69.86
24762;BME280;12865;51.934;10.330;2023-09-19T12:18:29;98655.44;;;19.38;69.18
24762;BME280;12865;51.934;10.330;2023-09-19T12:21:26;98665.00;;;19.67;69.25
24762;BME280;12865;51.934;10.330;2023-09-19T12:24:20;98666.63;;;19.81;68.63
24762;BME280;12865;51.934;10.330;2023-09-19T12:27:06;98661.63;;;19.78;66.33
24762;BME280;12865;51.934;10.330;2023-09-19T12:29:52;98666.69;;;19.48;66.18
24762;BME280;12865;51.934;10.330;2023-09-19T12:32:45;98661.88;;;19.56;67.64
24762;BME280;12865;51.934;10.330;2023-09-19T12:35:33;98667.91;;;19.58;69.30
24762;BME280;12865;51.934;10.330;2023-09-19T12:38:23;98649.13;;;19.77;65.30
24762;BME280;12865;51.934;10.330;2023-09-19T12:41:09;98654.75;;;19.82;65.15
24762;BME280;12865;51.934;10.330;2023-09-19T12:43:55;98654.75;;;19.82;63.96
24762;BME280;12865;51.934;10.330;2023-09-19T12:46:42;98648.75;;;19.73;63.85
24762;BME280;12865;51.934;10.330;2023-09-19T12:49:29;98639.75;;;19.86;63.26
24762;BME280;12865;51.934;10.330;2023-09-19T12:52:14;98644.72;;;19.95;62.44
24762;BME280;12865;51.934;10.330;2023-09-19T12:55:00;98640.75;;;19.91;62.34
24762;BME280;12865;51.934;10.330;2023-09-19T12:57:56;98640.25;;;20.14;62.72
24762;BME280;12865;51.934;10.330;2023-09-19T13:00:44;98641.81;;;19.90;62.23
24762;BME280;12865;51.934;10.330;2023-09-19T13:03:30;98656.75;;;20.06;62.22
24762;BME280;12865;51.934;10.330;2023-09-19T13:06:35;98646.84;;;20.38;60.64
24762;BME280;12865;51.934;10.330;2023-09-19T13:09:24;98651.00;;;20.41;60.89
24762;BME280;12865;51.934;10.330;2023-09-19T13:12:38;98636.41;;;20.42;58.85
24762;BME280;12865;51.934;10.330;2023-09-19T13:15:24;98636.09;;;20.18;59.49
24762;BME280;12865;51.934;10.330;2023-09-19T13:18:12;98639.28;;;20.02;60.15
24762;BME280;12865;51.934;10.330;2023-09-19T13:21:06;98627.53;;;20.21;60.91
24762;BME280;12865;51.934;10.330;2023-09-19T13:24:18;98634.16;;;20.70;60.11
24762;BME280;12865;51.934;10.330;2023-09-19T13:27:04;98624.47;;;20.11;56.86
24762;BME280;12865;51.934;10.330;2023-09-19T13:29:52;98635.75;;;20.02;56.95
24762;BME280;12865;51.934;10.330;2023-09-19T13:32:37;98630.56;;;19.93;57.22
24762;BME280;12865;51.934;10.330;2023-09-19T13:35:24;98623.63;;;20.11;58.18
24762;BME280;12865;51.934;10.330;2023-09-19T13:38:10;98622.03;;;19.96;58.36
24762;BME280;12865;51.934;10.330;2023-09-19T13:40:56;98615.28;;;20.12;58.06
24762;BME280;12865;51.934;10.330;2023-09-19T13:43:42;98631.34;;;20.52;57.91
24762;BME280;12865;51.934;10.330;2023-09-19T13:46:33;98618.69;;;20.46;57.57
24762;BME280;12865;51.934;10.330;2023-09-19T13:49:20;98605.00;;;20.34;58.18
24762;BME280;12865;51.934;10.330;2023-09-19T13:52:06;98608.38;;;19.72;60.06
24762;BME280;12865;51.934;10.330;2023-09-19T13:54:55;98618.72;;;19.88;60.26
24762;BME280;12865;51.934;10.330;2023-09-19T13:57:42;98618.94;;;19.86;58.87
24762;BME280;12865;51.934;10.330;2023-09-19T14:00:29;98623.72;;;19.84;58.52
24762;BME280;12865;51.934;10.330;2023-09-19T14:03:15;98626.69;;;19.70;60.36
24762;BME280;12865;51.934;10.330;2023-09-19T14:06:00;98625.41;;;19.79;59.96
24762;BME280;12865;51.934;10.330;2023-09-19T14:08:46;98604.13;;;19.95;58.47
24762;BME280;12865;51.934;10.330;2023-09-19T14:11:33;98603.41;;;20.13;58.28
24762;BME280;12865;51.934;10.330;2023-09-19T14:14:19;98596.28;;;20.19;59.38
24762;BME280;12865;51.934;10.330;2023-09-19T14:17:05;98600.78;;;20.00;61.48
24762;BME280;12865;51.934;10.330;2023-09-19T14:19:52;98595.22;;;20.33;60.21
24762;BME280;12865;51.934;10.330;2023-09-19T14:22:38;98603.88;;;20.48;58.65
24762;BME280;12865;51.934;10.330;2023-09-19T14:25:24;98596.72;;;20.60;60.13
24762;BME280;12865;51.934;10.330;2023-09-19T14:28:10;98587.72;;;20.28;58.40
24762;BME280;12865;51.934;10.330;2023-09-19T14:30:55;98576.84;;;20.42;60.45
24762;BME280;12865;51.934;10.330;2023-09-19T14:33:41;98583.75;;;20.37;57.05
24762;BME280;12865;51.934;10.330;2023-09-19T14:36:27;98581.81;;;20.45;57.33
24762;BME280;12865;51.934;10.330;2023-09-19T14:39:13;98575.63;;;20.37;56.54
24762;BME280;12865;51.934;10.330;2023-09-19T14:41:59;98574.50;;;20.52;54.94
24762;BME280;12865;51.934;10.330;2023-09-19T14:44:45;98591.72;;;20.19;57.24
24762;BME280;12865;51.934;10.330;2023-09-19T14:47:33;98593.34;;;20.33;57.63
24762;BME280;12865;51.934;10.330;2023-09-19T14:50:19;98600.97;;;19.98;58.77
24762;BME280;12865;51.934;10.330;2023-09-19T14:53:04;98595.50;;;20.18;57.35
24762;BME280;12865;51.934;10.330;2023-09-19T14:55:54;98585.75;;;20.11;57.71
24762;BME280;12865;51.934;10.330;2023-09-19T14:58:40;98585.09;;;20.15;59.77